GAF359 EDDC-ZZZZ

Flight info

Callsign GAF359
Flight time N/A
Altitude
Route
Aircraft A359

Departure

Time 2026-04-28 10:54
Airport Dresden Airport (EDDC)

Arrival

Time N/A
Airport ZZZZ
Time Latitude Longitude Altitude Speed Heading
2026-04-28 10:46 51.12635 13.76553 755 ft 3 kts 220°
2026-04-28 10:46 51.12649 13.76572 755 ft 3 kts 225°
2026-04-28 10:47 51.12661 13.76596 756 ft 3 kts 238°
2026-04-28 10:47 51.12669 13.76622 755 ft 3 kts 250°
2026-04-28 10:47 51.12672 13.76653 755 ft 2 kts 284°
2026-04-28 10:47 51.12666 13.76680 755 ft 2 kts 300°
2026-04-28 10:48 51.12662 13.76691 755 ft 0 kts 310°
2026-04-28 10:50 51.12684 13.76651 754 ft 12 kts 310°
2026-04-28 10:50 51.12730 13.76564 753 ft 18 kts 310°
2026-04-28 10:50 51.12782 13.76392 752 ft 12 kts 246°
2026-04-28 10:50 51.12737 13.76316 754 ft 16 kts 220°
2026-04-28 10:51 51.12644 13.76188 756 ft 19 kts 221°
2026-04-28 10:51 51.12537 13.76041 760 ft 22 kts 221°
2026-04-28 10:51 51.12421 13.75881 770 ft 16 kts 221°
2026-04-28 10:51 51.12408 13.75864 770 ft 4 kts 221°
2026-04-28 10:52 51.12374 13.75785 771 ft 8 kts 263°
2026-04-28 10:52 51.12402 13.75644 771 ft 18 kts 293°
2026-04-28 10:52 51.12484 13.75522 775 ft 10 kts 359°
2026-04-28 10:52 51.12542 13.75577 773 ft 1 kts 40°
2026-04-28 10:53 51.12551 13.75590 773 ft 5 kts 40°
2026-04-28 10:53 51.12565 13.75609 773 ft 0 kts 40°
2026-04-28 10:53 51.12574 13.75621 773 ft 17 kts 40°
2026-04-28 10:53 51.12922 13.76100 752 ft 112 kts 41°
2026-04-28 10:54 51.13700 13.77151 993 ft 167 kts 41°
2026-04-28 10:54 51.14605 13.78381 1990 ft 170 kts 41°
2026-04-28 10:54 51.15486 13.79608 3005 ft 169 kts 42°
2026-04-28 10:54 51.16403 13.80860 3651 ft 179 kts 43°
2026-04-28 10:55 51.17438 13.82076 3941 ft 190 kts 28°
2026-04-28 10:55 51.18696 13.82317 4022 ft 184 kts 351°
2026-04-28 10:55 51.19776 13.81308 4021 ft 184 kts 318°
2026-04-28 10:55 51.20604 13.79812 3995 ft 176 kts 313°
2026-04-28 10:56 51.21179 13.78087 3997 ft 183 kts 284°
2026-04-28 10:56 51.20994 13.76104 3998 ft 185 kts 242°
2026-04-28 10:56 51.20240 13.74481 3984 ft 180 kts 225°
2026-04-28 10:56 51.19386 13.73028 3984 ft 178 kts 225°
2026-04-28 10:57 51.18533 13.71562 4014 ft 182 kts 226°
2026-04-28 10:57 51.17676 13.70090 3995 ft 179 kts 226°
2026-04-28 10:57 51.16826 13.68657 3983 ft 178 kts 226°
2026-04-28 10:57 51.15967 13.67224 4019 ft 181 kts 224°
2026-04-28 10:58 51.15098 13.65792 3990 ft 179 kts 225°
2026-04-28 10:58 51.14228 13.64352 4001 ft 182 kts 226°
2026-04-28 10:58 51.13362 13.62900 3986 ft 180 kts 224°
2026-04-28 10:58 51.12500 13.61471 3989 ft 180 kts 224°
2026-04-28 10:59 51.11637 13.60026 4016 ft 182 kts 225°
2026-04-28 10:59 51.10752 13.58551 3984 ft 183 kts 225°
2026-04-28 10:59 51.09895 13.57104 4012 ft 180 kts 224°
2026-04-28 10:59 51.09032 13.55665 3980 ft 178 kts 226°
2026-04-28 11:00 51.08175 13.54269 3979 ft 175 kts 225°
2026-04-28 11:00 51.07333 13.52901 3992 ft 170 kts 225°
2026-04-28 11:00 51.06532 13.51586 4017 ft 166 kts 225°
2026-04-28 11:00 51.05707 13.50224 4010 ft 176 kts 224°
2026-04-28 11:01 51.04852 13.48822 3894 ft 177 kts 224°
2026-04-28 11:01 51.03904 13.47527 3516 ft 184 kts 206°
2026-04-28 11:01 51.02682 13.47279 3322 ft 174 kts 163°
2026-04-28 11:01 51.01661 13.48059 3240 ft 154 kts 139°
2026-04-28 11:02 51.00848 13.49051 3241 ft 143 kts 136°
2026-04-28 11:02 51.00101 13.50068 3073 ft 141 kts 135°
2026-04-28 11:02 50.99356 13.51100 3142 ft 145 kts 133°
2026-04-28 11:02 50.98740 13.52508 3371 ft 174 kts 102°
2026-04-28 11:03 50.98660 13.54601 3418 ft 202 kts 85°
2026-04-28 11:03 50.98552 13.56831 3371 ft 195 kts 94°
2026-04-28 11:03 50.98720 13.58799 3364 ft 172 kts 63°
2026-04-28 11:03 50.99569 13.60007 3389 ft 170 kts 22°
2026-04-28 11:04 51.00701 13.60650 3485 ft 168 kts 21°
2026-04-28 11:04 51.01734 13.61312 3402 ft 158 kts 32°
2026-04-28 11:04 51.02662 13.62124 3271 ft 147 kts 32°
2026-04-28 11:04 51.03465 13.63036 3012 ft 139 kts 42°
2026-04-28 11:05 51.04202 13.64065 2890 ft 139 kts 42°
2026-04-28 11:05 51.04910 13.65009 2799 ft 130 kts 46°
2026-04-28 11:05 51.05560 13.65941 2558 ft 121 kts 41°
2026-04-28 11:05 51.06176 13.66802 2349 ft 116 kts 42°
2026-04-28 11:06 51.06784 13.67636 2131 ft 114 kts 41°
2026-04-28 11:06 51.07383 13.68459 1956 ft 113 kts 42°
2026-04-28 11:06 51.07967 13.69266 1806 ft 110 kts 42°
2026-04-28 11:06 51.08546 13.70053 1699 ft 109 kts 41°
2026-04-28 11:07 51.09121 13.70845 1533 ft 109 kts 43°
2026-04-28 11:07 51.09693 13.71645 1437 ft 109 kts 43°
2026-04-28 11:07 51.10259 13.72439 1327 ft 108 kts 41°
2026-04-28 11:07 51.10849 13.73214 1268 ft 112 kts 44°
2026-04-28 11:08 51.11439 13.74032 1045 ft 111 kts 42°
2026-04-28 11:08 51.12007 13.74814 936 ft 107 kts 46°
2026-04-28 11:08 51.12567 13.75588 786 ft 106 kts 44°
2026-04-28 11:08 51.13083 13.76308 752 ft 96 kts 41°
2026-04-28 11:09 51.13789 13.77259 932 ft 158 kts 42°
2026-04-28 11:09 51.14680 13.78481 1442 ft 180 kts 42°
2026-04-28 11:09 51.15776 13.79799 2034 ft 212 kts 38°
2026-04-28 11:09 51.16971 13.81304 2467 ft 216 kts 40°
2026-04-28 11:10 51.17971 13.82795 2819 ft 182 kts 46°
2026-04-28 11:10 51.18762 13.84166 3120 ft 157 kts 49°
2026-04-28 11:10 51.19579 13.85243 3013 ft 153 kts 25°
2026-04-28 11:10 51.20648 13.85206 2989 ft 163 kts 342°
2026-04-28 11:11 51.21591 13.84163 2998 ft 166 kts 322°
2026-04-28 11:11 51.22428 13.82879 2992 ft 167 kts 319°
2026-04-28 11:11 51.23252 13.81562 2991 ft 168 kts 319°
2026-04-28 11:11 51.24075 13.80239 3001 ft 168 kts 319°
2026-04-28 11:12 51.24895 13.78905 2989 ft 168 kts 320°
2026-04-28 11:12 51.25438 13.77221 3004 ft 180 kts 283°
2026-04-28 11:12 51.25198 13.75284 2989 ft 182 kts 241°
2026-04-28 11:12 51.24432 13.73711 2997 ft 178 kts 225°
2026-04-28 11:13 51.23563 13.72314 2995 ft 177 kts 224°
2026-04-28 11:13 51.22675 13.70948 2994 ft 179 kts 223°
2026-04-28 11:13 51.21784 13.69579 2990 ft 177 kts 223°
2026-04-28 11:13 51.20884 13.68206 2987 ft 180 kts 223°
2026-04-28 11:14 51.19980 13.66827 2998 ft 177 kts 222°
2026-04-28 11:14 51.19088 13.65452 2967 ft 179 kts 224°
2026-04-28 11:14 51.18186 13.64063 2984 ft 181 kts 222°
2026-04-28 11:14 51.17277 13.62667 2990 ft 182 kts 223°
2026-04-28 11:15 51.16365 13.61261 2940 ft 183 kts 223°
2026-04-28 11:15 51.15447 13.59864 2709 ft 181 kts 223°
2026-04-28 11:15 51.14545 13.58494 2437 ft 177 kts 223°
2026-04-28 11:15 51.13665 13.57149 2179 ft 174 kts 223°
2026-04-28 11:16 51.12797 13.55821 2020 ft 171 kts 223°
2026-04-28 11:16 51.11978 13.54547 1972 ft 157 kts 223°
2026-04-28 11:16 51.11205 13.53364 2003 ft 153 kts 223°
2026-04-28 11:16 51.10410 13.52275 1989 ft 153 kts 212°
2026-04-28 11:17 51.09385 13.52006 1980 ft 148 kts 160°
2026-04-28 11:17 51.08507 13.52714 1987 ft 135 kts 140°
2026-04-28 11:17 51.07805 13.53590 1972 ft 124 kts 136°
2026-04-28 11:17 51.07152 13.54462 1989 ft 122 kts 135°
2026-04-28 11:18 51.06494 13.55317 1990 ft 122 kts 138°
2026-04-28 11:18 51.05830 13.56152 1994 ft 122 kts 136°
2026-04-28 11:18 51.05175 13.57007 1976 ft 121 kts 131°
2026-04-28 11:18 51.04876 13.58184 2035 ft 113 kts 90°
2026-04-28 11:19 51.04852 13.59425 1998 ft 112 kts 86°
2026-04-28 11:19 51.04875 13.60676 1988 ft 114 kts 84°
2026-04-28 11:19 51.04885 13.61929 1990 ft 113 kts 84°
2026-04-28 11:19 51.04907 13.63182 1997 ft 114 kts 85°
2026-04-28 11:20 51.04986 13.64424 1985 ft 112 kts 72°
2026-04-28 11:20 51.05318 13.65533 1987 ft 110 kts 58°
2026-04-28 11:20 51.05839 13.66383 1977 ft 107 kts 39°
2026-04-28 11:20 51.06441 13.67119 2021 ft 111 kts 40°
2026-04-28 11:21 51.07009 13.67930 2002 ft 111 kts 43°
2026-04-28 11:21 51.07586 13.68729 2008 ft 111 kts 41°
2026-04-28 11:21 51.08166 13.69529 1881 ft 110 kts 40°
2026-04-28 11:21 51.08741 13.70320 1751 ft 108 kts 43°
2026-04-28 11:22 51.09307 13.71108 1588 ft 108 kts 42°
2026-04-28 11:22 51.09872 13.71887 1462 ft 106 kts 41°
2026-04-28 11:22 51.10441 13.72671 1325 ft 110 kts 45°
2026-04-28 11:22 51.11022 13.73473 1158 ft 110 kts 43°
2026-04-28 11:23 51.11594 13.74260 1044 ft 106 kts 46°
2026-04-28 11:23 51.12165 13.75031 885 ft 108 kts 45°
2026-04-28 11:23 51.12719 13.75806 766 ft 101 kts 41°
2026-04-28 11:23 51.13115 13.76353 752 ft 48 kts 41°
2026-04-28 11:24 51.13356 13.76688 742 ft 45 kts 41°
2026-04-28 11:24 51.13585 13.77007 736 ft 42 kts 41°
2026-04-28 11:24 51.13791 13.77293 735 ft 38 kts 40°
2026-04-28 11:24 51.13897 13.77469 732 ft 10 kts 59°
2026-04-28 11:25 51.13910 13.77492 732 ft 0 kts 35°
2026-04-28 11:25 51.13915 13.77492 731 ft 2 kts
2026-04-28 11:25 51.13918 13.77458 734 ft 8 kts 248°
2026-04-28 11:25 51.13814 13.77306 737 ft 35 kts 220°
2026-04-28 11:26 51.13578 13.76986 736 ft 48 kts 220°
2026-04-28 11:26 51.13331 13.76653 743 ft 39 kts 219°
2026-04-28 11:26 51.13218 13.76499 747 ft 21 kts 220°
2026-04-28 11:26 51.13102 13.76340 751 ft 24 kts 220°
2026-04-28 11:27 51.12963 13.76151 752 ft 28 kts 220°
2026-04-28 11:27 51.12805 13.75936 752 ft 31 kts 220°
2026-04-28 11:27 51.12640 13.75710 771 ft 31 kts 220°
2026-04-28 11:27 51.12523 13.75551 774 ft 7 kts 220°
2026-04-28 11:28 51.12465 13.75522 775 ft 9 kts 162°
2026-04-28 11:28 51.12400 13.75647 771 ft 24 kts 114°
2026-04-28 11:28 51.12383 13.75825 771 ft 9 kts 62°
2026-04-28 11:28 51.12433 13.75904 770 ft 13 kts 43°
2026-04-28 11:29 51.12471 13.75990 768 ft 4 kts 91°
2026-04-28 11:29 51.12467 13.76103 766 ft 8 kts 94°
2026-04-28 11:29 51.12466 13.76106 766 ft 0 kts 94°